Texas Logo

Carrollton, TX Single Family Real Estate Listings

269 Total Real Estate Listings * Click on table heading to sort
Date Posted Property Type Style Address Price Living Area Lot Size Price/Sq Ft.
2017-11-23 Single Family Traditional 3201 Sugarbush Drive Carrollton, TX 75007 $294,900 2,081 sq. ft. 9,583 sq. ft. $142
2017-11-22 Single Family Traditional 3709 Grasmere Drive Carrollton, TX 75007 $259,000 1,664 sq. ft. 8,712 sq. ft. $156
2017-11-22 Single Family Traditional 2215 Daniel Way Carrollton, TX 75006 $185,000 1,256 sq. ft. 6,534 sq. ft. $147
2017-11-21 Single Family Traditional 1301 Royal Palm Lane Carrollton, TX 75007 $300,000 2,295 sq. ft. 7,405 sq. ft. $131
2017-11-21 Single Family 2104 Pontiac Drive Carrollton, TX 75006 $199,900 1,300 sq. ft. 7,405 sq. ft. $154
2017-11-21 Single Family Traditional 4112 Choctaw Drive Carrollton, TX 75010 $599,000 5,478 sq. ft. 11,761 sq. ft. $109
2017-11-20 Single Family 2127 Placid Drive Carrollton, TX 75007 $179,900 1,425 sq. ft. 6,970 sq. ft. $126
2017-11-20 Single Family Traditional 2716 Fallcreek Drive Carrollton, TX 75006 $369,900 2,823 sq. ft. 7,405 sq. ft. $131
2017-11-17 Single Family Traditional 2023 Greenview Drive Carrollton, TX 75010 $239,900 1,434 sq. ft. 4,356 sq. ft. $167
2017-11-17 Single Family 1619 Kingspoint Drive Carrollton, TX 75007 $249,900 1,840 sq. ft. 4,356 sq. ft. $136
2017-11-17 Single Family Traditional 2601 Renwick Drive Carrollton, TX 75007 $275,000 1,903 sq. ft. 10,890 sq. ft. $145
2017-11-17 Single Family Traditional 1613 Saint James Drive Carrollton, TX 75007 $254,900 1,854 sq. ft. 8,276 sq. ft. $137
2017-11-17 Single Family Traditional 4181 Creekmeadow Drive Carrollton, TX 75010 $269,900 1,662 sq. ft. 4,792 sq. ft. $162
2017-11-17 Single Family 2104 Southmoor Drive Carrollton, TX 75006 $265,713 1,688 sq. ft. 13,068 sq. ft. $157
2017-11-17 Single Family Ranch; Traditional 2107 Antibes Drive Carrollton, TX 75006 $325,000 2,905 sq. ft. 9,148 sq. ft. $112
2017-11-16 Single Family Traditional 3101 Aspen Carrollton, TX 75007 $239,500 2,176 sq. ft. 10,890 sq. ft. $110
2017-11-16 Single Family Traditional 1409 Pawnee Trail Carrollton, TX 75007 $250,000 1,487 sq. ft. 5,663 sq. ft. $168
2017-11-16 Single Family Traditional 1730 Big Canyon Trail Carrollton, TX 75007 $299,500 2,654 sq. ft. 8,276 sq. ft. $113
2017-11-15 Single Family Traditional 1941 Castille Drive Carrollton, TX 75007 $210,000 1,930 sq. ft. 9,148 sq. ft. $109
2017-11-15 Single Family Traditional 2551 Melissa Court Carrollton, TX 75006 $309,900 2,126 sq. ft. 3,485 sq. ft. $146
2017-11-14 Single Family Traditional 3805 Amberglow Court Carrollton, TX 75007 $435,000 2,848 sq. ft. 9,583 sq. ft. $153
2017-11-14 Single Family Traditional 2618 Ramblewood Drive Carrollton, TX 75006 $295,000 2,168 sq. ft. 10,019 sq. ft. $136
2017-11-13 Single Family Traditional 1803 Angleridge Cove Carrollton, TX 75006 $224,900 1,220 sq. ft. 3,485 sq. ft. $184
2017-11-13 Single Family Traditional 2202 Belvedere Carrollton, TX 75006 $339,000 2,491 sq. ft. 9,583 sq. ft. $136
2017-11-13 Single Family Ranch 1738 Hartford Drive Carrollton, TX 75007 $269,000 2,107 sq. ft. 7,841 sq. ft. $128
2017-11-12 Single Family Traditional 4343 Harvest Hill Road Carrollton, TX 75010 $208,000 1,331 sq. ft. $156
2017-11-11 Single Family Traditional 2110 Sequoyah Way Carrollton, TX 75006 $159,900 900 sq. ft. 10,019 sq. ft. $178
2017-11-10 Single Family Traditional 2403 Morian Circle Carrollton, TX 75007 $320,000 2,368 sq. ft. 10,454 sq. ft. $135
2017-11-10 Single Family 2317 Chrystal Falls Drive Carrollton, TX 75006 $455,000 3,256 sq. ft. 3,049 sq. ft. $140
2017-11-10 Single Family Traditional 1806 Dew Valley Drive Carrollton, TX 75010 $295,000 2,353 sq. ft. 4,792 sq. ft. $125
2017-11-10 Single Family 2313 Chrystal Falls Drive Carrollton, TX 75006 $455,000 3,256 sq. ft. 3,049 sq. ft. $140
2017-11-10 Single Family 2309 Chrystal Falls Drive Carrollton, TX 75006 $420,000 3,002 sq. ft. 3,049 sq. ft. $140
2017-11-10 Single Family Traditional 2109 Via Estrada Carrollton, TX 75006 $174,900 1,720 sq. ft. 7,405 sq. ft. $102
2017-11-10 Single Family Traditional 1215 Magnolia Drive Carrollton, TX 75007 $345,000 2,706 sq. ft. 8,276 sq. ft. $127
2017-11-09 Single Family Ranch 1406 Trail Drive Carrollton, TX 75006 $285,000 2,256 sq. ft. 10,454 sq. ft. $126
2017-11-09 Single Family Traditional 4029 Windy Crest Drive Carrollton, TX 75007 $278,000 2,150 sq. ft. 8,276 sq. ft. $129
2017-11-09 Single Family Traditional 1604 Duncan Way Carrollton, TX 75006 $193,500 1,289 sq. ft. $150
2017-11-09 Single Family Traditional 4317 Milsop Drive Carrollton, TX 75010 $450,000 3,452 sq. ft. 10,019 sq. ft. $130
2017-11-09 Single Family Contemporary/Modern; Traditional 2376 Mare Carrollton, TX 75010 $589,000 3,880 sq. ft. 6,970 sq. ft. $152
2017-11-09 Single Family Craftsman 1600 Morning Dove Court Carrollton, TX 75007 $445,000 3,317 sq. ft. 9,583 sq. ft. $134
2017-11-09 Single Family Traditional 4223 Oak Mount Drive Carrollton, TX 75010 $252,500 1,606 sq. ft. 6,970 sq. ft. $157
2017-11-09 Single Family Traditional 1841 Melton Drive Carrollton, TX 75010 $279,900 1,909 sq. ft. 6,534 sq. ft. $147
2017-11-09 Single Family 1935 Camden Way Carrollton, TX 75007 $329,000 2,245 sq. ft. 8,276 sq. ft. $147
2017-11-08 Single Family Traditional 2202 Trinity Springs Drive Carrollton, TX 75007 $270,000 1,720 sq. ft. 6,970 sq. ft. $157
2017-11-08 Single Family Traditional 3126 Chestnut Road Carrollton, TX 75007 $268,500 2,004 sq. ft. 7,841 sq. ft. $134
2017-11-08 Single Family Traditional 2045 Peters Colony Road Carrollton, TX 75007 $212,000 1,482 sq. ft. 7,405 sq. ft. $143
2017-11-08 Single Family Traditional 2110 Dover Drive Carrollton, TX 75006 $265,000 1,872 sq. ft. 4,792 sq. ft. $142
2017-11-07 Single Family Traditional 1812 Baxley Drive Carrollton, TX 75006 $185,000 1,452 sq. ft. 9,148 sq. ft. $127
2017-11-07 Single Family 2502 Canterbury Drive Carrollton, TX 75006 $359,900 2,929 sq. ft. 10,019 sq. ft. $123
2017-11-06 Single Family Ranch; Traditional 3638 Amanda Circle Carrollton, TX 75007 $279,000 1,925 sq. ft. 9,148 sq. ft. $145
2017-11-06 Single Family Traditional 1726 San Francisco Street Carrollton, TX 75007 $239,000 1,840 sq. ft. 4,356 sq. ft. $130
2017-11-06 Single Family 2219 Ridgewood Carrollton, TX 75006 $304,900 2,131 sq. ft. 9,148 sq. ft. $143
2017-11-04 Single Family Traditional 2754 Spyglass Drive Carrollton, TX 75007 $292,000 2,008 sq. ft. 7,841 sq. ft. $145
2017-11-04 Single Family Traditional 2100 Clearwater Trail Carrollton, TX 75010 $288,500 2,028 sq. ft. 9,583 sq. ft. $142
2017-11-04 Single Family Traditional 2664 Waterford Way Carrollton, TX 75006 $389,900 2,777 sq. ft. 8,276 sq. ft. $140
2017-11-04 Single Family Traditional 1725 Branch Hollow Drive Carrollton, TX 75007 $475,000 4,159 sq. ft. 8,276 sq. ft. $114
2017-11-03 Single Family Traditional 1405 Susan Lane Carrollton, TX 75007 $350,000 2,868 sq. ft. 6,970 sq. ft. $122
2017-11-03 Single Family Traditional 4633 Dozier Road Carrollton, TX 75010 $599,000 3,648 sq. ft. 8,712 sq. ft. $164
2017-11-03 Single Family Traditional 1504 Shepherd Lane Carrollton, TX 75007 $425,000 3,023 sq. ft. 8,712 sq. ft. $141
2017-11-03 Single Family Traditional 2005 Diamond Ridge Drive Carrollton, TX 75010 $295,000 2,112 sq. ft. 6,098 sq. ft. $140
2017-11-03 Single Family Traditional 2449 Mare Road Carrollton, TX 75010 $553,660 3,891 sq. ft. 5,663 sq. ft. $142
2017-11-03 Single Family Traditional 2428 Vaquero Lane Carrollton, TX 75010 $617,025 3,814 sq. ft. 7,405 sq. ft. $162
2017-11-03 Single Family 2024 Greenview Drive Carrollton, TX 75010 $239,000 1,562 sq. ft. 4,356 sq. ft. $153
2017-11-03 Single Family Traditional 2108 Rose Cliff Lane Carrollton, TX 75007 $249,900 1,802 sq. ft. 4,356 sq. ft. $139
2017-11-02 Single Family Traditional 1013 Park Avenue Carrollton, TX 75006 $253,000 1,696 sq. ft. 10,890 sq. ft. $149
2017-11-02 Single Family Traditional 1105 Shawnee Trail Carrollton, TX 75007 $330,000 2,261 sq. ft. 8,712 sq. ft. $146
2017-11-02 Single Family Traditional 1427 Homestead Lane Carrollton, TX 75007 $235,000 1,609 sq. ft. 3,920 sq. ft. $146
2017-11-02 Single Family Traditional 2200 Emerson Lane Carrollton, TX 75010 $639,900 4,239 sq. ft. 8,712 sq. ft. $151
2017-11-02 Single Family Traditional 1121 Moonstone Street Carrollton, TX 75007 $399,900 1,892 sq. ft. 4,792 sq. ft. $211
2017-11-02 Single Family Traditional 2114 Springwood Carrollton, TX 75006 $255,000 1,850 sq. ft. 9,148 sq. ft. $138
2017-11-02 Single Family Traditional 2528 Melissa Lane Carrollton, TX 75006 $224,900 1,926 sq. ft. 3,920 sq. ft. $117
2017-11-01 Single Family Contemporary/Modern 2216 Trinity Springs Drive Carrollton, TX 75007 $284,900 2,049 sq. ft. 7,405 sq. ft. $139
2017-11-01 Single Family Traditional 4904 Sage Hill Drive Carrollton, TX 75010 $439,900 2,634 sq. ft. 2,614 sq. ft. $167
2017-11-01 Single Family Traditional 1048 Caprock Lane Carrollton, TX 75010 $622,546 4,104 sq. ft. 10,890 sq. ft. $152
2017-11-01 Single Family Traditional 4852 Tahoe Trail Carrollton, TX 75010 $420,548 2,297 sq. ft. 4,356 sq. ft. $183
2017-11-01 Single Family 1115 Holly Drive Carrollton, TX 75010 $344,900 2,220 sq. ft. 5,227 sq. ft. $155
2017-11-01 Single Family Traditional 2548 Durango Drive Carrollton, TX 75010 $449,990 2,845 sq. ft. 4,356 sq. ft. $158
2017-11-01 Single Family Traditional 2552 Durango Drive Carrollton, TX 75010 $399,990 2,552 sq. ft. 4,356 sq. ft. $157
2017-11-01 Single Family Traditional 2560 Durango Drive Carrollton, TX 75010 $437,662 2,799 sq. ft. 4,356 sq. ft. $156
2017-11-01 Single Family Traditional 2556 Durango Drive Carrollton, TX 75010 $453,041 2,820 sq. ft. 4,356 sq. ft. $161
2017-11-01 Single Family Traditional 2209 Nolan Drive Carrollton, TX 75006 $212,000 1,448 sq. ft. 6,970 sq. ft. $146
2017-11-01 Single Family Traditional 2255 Reagan Boulevard Carrollton, TX 75006 $200,000 1,389 sq. ft. 6,970 sq. ft. $144
2017-11-01 Single Family Ranch 2307 Versailles Drive Carrollton, TX 75007 $199,900 1,589 sq. ft. 5,227 sq. ft. $126
2017-10-28 Single Family Traditional 1324 Branch Hollow Drive Carrollton, TX 75007 $289,700 1,954 sq. ft. 6,970 sq. ft. $148
2017-10-28 Single Family 2829 Elk Grove Road Carrollton, TX 75007 $269,900 1,893 sq. ft. 8,712 sq. ft. $143
2017-10-28 Single Family Traditional 2124 Avignon Drive Carrollton, TX 75007 $226,900 1,499 sq. ft. 3,920 sq. ft. $151
2017-10-28 Single Family 3107 Squireswood Drive Carrollton, TX 75006 $435,000 3,100 sq. ft. 6,970 sq. ft. $140
2017-10-27 Single Family Traditional 2837 Edinburgh Drive Carrollton, TX 75006 $399,900 2,836 sq. ft. 4,356 sq. ft. $141
2017-10-27 Single Family Traditional 1603 Delaford Drive Carrollton, TX 75007 $265,000 2,106 sq. ft. 9,148 sq. ft. $126
2017-10-27 Single Family 1941 Westminster Drive Carrollton, TX 75007 $300,000 2,008 sq. ft. 8,276 sq. ft. $149
2017-10-27 Single Family Traditional 2640 Creekway Drive Carrollton, TX 75010 $599,900 4,476 sq. ft. 10,019 sq. ft. $134
2017-10-27 Single Family Traditional 2612 Winterlake Drive Carrollton, TX 75006 $239,900 1,783 sq. ft. 8,276 sq. ft. $135
2017-10-27 Single Family Traditional 3403 Ashleaf Drive Carrollton, TX 75007 $349,000 2,672 sq. ft. 7,405 sq. ft. $131
2017-10-27 Single Family Traditional 2209 Via Del Norte Circle Carrollton, TX 75006 $275,000 1,836 sq. ft. 8,276 sq. ft. $150
2017-10-27 Single Family Traditional 1107 Northside Drive Carrollton, TX 75006 $189,000 1,214 sq. ft. 7,405 sq. ft. $156
2017-10-27 Single Family Traditional 2510 Incline Drive Carrollton, TX 75006 $254,900 1,799 sq. ft. 10,019 sq. ft. $142
2017-10-27 Single Family Traditional 1926 Meadowview Court Carrollton, TX 75010 $214,900 1,342 sq. ft. 4,225,320 sq. ft. $160
2017-10-26 Single Family Traditional 3006 Glenhollow Circle Carrollton, TX 75007 $202,900 1,678 sq. ft. 7,841 sq. ft. $121
2017-10-26 Single Family 3732 Muirfield Drive Carrollton, TX 75007 $325,000 2,454 sq. ft. 8,276 sq. ft. $132
2017-10-26 Single Family 1939 Vista Oaks Drive Carrollton, TX 75007 $299,900 2,598 sq. ft. 9,583 sq. ft. $115
2017-10-26 Single Family 2125 Placid Drive Carrollton, TX 75007 $175,000 1,210 sq. ft. 6,970 sq. ft. $145
2017-10-26 Single Family 2923 Mill Trail Carrollton, TX 75007 $239,360 1,760 sq. ft. 7,841 sq. ft. $136
2017-10-26 Single Family 3218 Delaford Drive Carrollton, TX 75007 $224,900 1,506 sq. ft. 7,405 sq. ft. $149
2017-10-25 Single Family 2529 Guerrero Drive Carrollton, TX 75006 $275,000 2,272 sq. ft. 13,504 sq. ft. $121
2017-10-25 Single Family Traditional 2003 Christie Lane Carrollton, TX 75007 $245,000 1,877 sq. ft. 6,970 sq. ft. $131
2017-10-24 Single Family 1911 Haymeadow Carrollton, TX 75007 $239,000 1,824 sq. ft. 8,276 sq. ft. $131
2017-10-24 Single Family 4312 Harvest Hill Road Carrollton, TX 75010 $230,000 1,530 sq. ft. 6,098 sq. ft. $150
2017-10-23 Single Family Traditional 2014 Warberry Road Carrollton, TX 75007 $269,900 1,896 sq. ft. $142
2017-10-23 Single Family Traditional 2020 Gallante Drive Carrollton, TX 75007 $165,000 1,080 sq. ft. 4,792 sq. ft. $153
2017-10-22 Single Family Traditional 4341 Milsop Drive Carrollton, TX 75010 $599,999 4,404 sq. ft. 13,504 sq. ft. $136
2017-10-21 Single Family Traditional 2205 Stonebrook Drive Carrollton, TX 75007 $197,000 1,585 sq. ft. 6,098 sq. ft. $124
2017-10-21 Single Family 2125 Pueblo Drive Carrollton, TX 75006 $246,900 1,620 sq. ft. 9,148 sq. ft. $152
2017-10-20 Single Family Split Level 1040 Rodin Lane Carrollton, TX 75006 $256,000 1,877 sq. ft. 3,485 sq. ft. $136
2017-10-20 Single Family Ranch; Traditional 1791 Eagle Crest Drive Carrollton, TX 75010 $378,000 2,206 sq. ft. 5,663 sq. ft. $171
2017-10-20 Single Family Traditional 3805 Cemetery Hill Road Carrollton, TX 75007 $272,000 1,567 sq. ft. 8,276 sq. ft. $174
2017-10-20 Single Family Traditional 2920 Haymeadow Carrollton, TX 75007 $260,000 2,004 sq. ft. 7,841 sq. ft. $130
2017-10-20 Single Family Traditional 2261 Bresee Road Carrollton, TX 75010 $260,000 1,751 sq. ft. 6,098 sq. ft. $148
2017-10-20 Single Family Traditional 1712 Rosemeade Circle Carrollton, TX 75007 $299,900 1,832 sq. ft. 10,019 sq. ft. $164
2017-10-20 Single Family Traditional 1215 Normandy Drive Carrollton, TX 75006 $264,900 2,056 sq. ft. 7,841 sq. ft. $129
2017-10-20 Single Family Traditional 2201 Sinclair Street Carrollton, TX 75010 $524,900 3,070 sq. ft. 8,276 sq. ft. $171
2017-10-20 Single Family Traditional 3945 Creekside Lane Carrollton, TX 75010 $364,999 2,850 sq. ft. 7,405 sq. ft. $128
2017-10-20 Single Family Traditional 1002 Hampshire Lane Carrollton, TX 75007 $389,900 3,570 sq. ft. 9,148 sq. ft. $109
2017-10-20 Single Family Traditional 1408 Northridge Court Carrollton, TX 75006 $390,000 3,073 sq. ft. 7,405 sq. ft. $127
2017-10-19 Single Family Traditional 3620 Cimarron Drive Carrollton, TX 75007 $419,000 3,625 sq. ft. 6,970 sq. ft. $116
2017-10-19 Single Family Traditional 1220 Fox Hollow Drive Carrollton, TX 75007 $239,900 1,895 sq. ft. 8,712 sq. ft. $127
2017-10-19 Single Family 2716 Glenwood Court Carrollton, TX 75006 $255,000 1,901 sq. ft. 5,663 sq. ft. $134
2017-10-19 Single Family Traditional 1345 Jeanette Way Carrollton, TX 75006 $259,500 2,589 sq. ft. 3,485 sq. ft. $100
2017-10-19 Single Family Traditional 4225 Haskell Drive Carrollton, TX 75010 $349,000 2,253 sq. ft. $155
2017-10-19 Single Family Traditional 2906 Panorama Drive Carrollton, TX 75007 $279,900 1,933 sq. ft. 7,405 sq. ft. $145
2017-10-19 Single Family Traditional 2034 Rose Hill Road Carrollton, TX 75007 $224,990 1,349 sq. ft. 7,841 sq. ft. $167
2017-10-18 Single Family Traditional 2457 Mare Road Carrollton, TX 75010 $465,000 2,232 sq. ft. 7,405 sq. ft. $208
2017-10-18 Single Family 2032 Christie Lane Carrollton, TX 75007 $229,000 1,853 sq. ft. 6,970 sq. ft. $124
2017-10-18 Single Family 2711 Glenwood Court Carrollton, TX 75006 $205,000 1,788 sq. ft. $115
2017-10-17 Single Family 2507 Incline Drive Carrollton, TX 75006 $277,000 1,942 sq. ft. 5,663 sq. ft. $143
2017-10-16 Single Family Traditional 1438 Homestead Lane Carrollton, TX 75007 $244,900 1,739 sq. ft. 4,356 sq. ft. $141
2017-10-14 Single Family Traditional 2709 Country Place Carrollton, TX 75006 $240,000 2,056 sq. ft. 4,356 sq. ft. $117
2017-10-13 Single Family Ranch; Traditional 4215 Cliff Drive Carrollton, TX 75010 $295,000 1,982 sq. ft. 6,970 sq. ft. $149
2017-10-13 Single Family Colonial; Traditional 3752 Menard Drive Carrollton, TX 75010 $394,999 3,453 sq. ft. 9,148 sq. ft. $114
2017-10-13 Single Family Traditional 4616 Cherokee Path Carrollton, TX 75010 $319,990 2,478 sq. ft. 6,970 sq. ft. $129
2017-10-13 Single Family Traditional 3820 Johnson Drive Carrollton, TX 75010 $375,000 3,157 sq. ft. 7,405 sq. ft. $119
2017-10-12 Single Family Traditional 2232 High Country Drive Carrollton, TX 75007 $825,000 4,672 sq. ft. 37,026 sq. ft. $177
2017-10-12 Single Family 1509 Sugar Creek Drive Carrollton, TX 75007 $299,000 2,296 sq. ft. 7,841 sq. ft. $130
2017-10-12 Single Family Traditional 1610 Mayflower Drive Carrollton, TX 75007 $245,000 1,628 sq. ft. 8,712 sq. ft. $150
2017-10-12 Single Family Traditional 4650 Cherokee Path Carrollton, TX 75010 $324,500 2,478 sq. ft. 6,534 sq. ft. $131
2017-10-12 Single Family Traditional 1201 Osceola Trail Carrollton, TX 75006 $299,900 3,325 sq. ft. 7,405 sq. ft. $90
2017-10-11 Single Family 4216 Juniper Lane Carrollton, TX 75010 $312,000 2,421 sq. ft. 6,970 sq. ft. $129
2017-10-11 Single Family Traditional 1313 Red Maple Drive Carrollton, TX 75007 $265,000 2,044 sq. ft. 6,970 sq. ft. $130
2017-10-11 Single Family Traditional 4509 Valley Glen Drive Carrollton, TX 75010 $444,900 3,211 sq. ft. 11,761 sq. ft. $139
2017-10-10 Single Family Ranch 1837 Cottonwood Road Carrollton, TX 75006 $194,900 1,598 sq. ft. 11,761 sq. ft. $122
2017-10-10 Single Family Traditional 3017 Lockwood Circle Carrollton, TX 75007 $219,900 1,588 sq. ft. 7,405 sq. ft. $138
2017-10-09 Single Family Traditional 2850 Lotus Street Carrollton, TX 75007 $583,011 3,688 sq. ft. 6,534 sq. ft. $158
2017-10-08 Single Family Traditional 2537 Cattail Lane Carrollton, TX 75006 $255,000 1,697 sq. ft. 5,227 sq. ft. $150
2017-10-06 Single Family Traditional 2858 Lotus Street Carrollton, TX 75007 $575,106 3,583 sq. ft. 6,098 sq. ft. $161
2017-10-06 Single Family 1812 Addington Drive Carrollton, TX 75007 $299,500 2,155 sq. ft. 7,841 sq. ft. $139
2017-10-06 Single Family Traditional 2428 Mare Road Carrollton, TX 75010 $499,000 2,991 sq. ft. 6,098 sq. ft. $167
2017-10-06 Single Family Traditional 2204 Paige Court Carrollton, TX 75006 $325,000 2,202 sq. ft. 4,356 sq. ft. $148
2017-10-05 Single Family Traditional 1602 Malibu Drive Carrollton, TX 75006 $216,499 1,722 sq. ft. 9,148 sq. ft. $126
2017-10-05 Single Family Traditional 2810 Surrey Drive Carrollton, TX 75006 $335,000 2,618 sq. ft. 10,019 sq. ft. $128
2017-10-04 Single Family Traditional 1717 Elizabeth Drive Carrollton, TX 75007 $275,000 1,931 sq. ft. 8,712 sq. ft. $142
2017-10-03 Single Family Traditional 3311 Willow Ridge Circle Carrollton, TX 75007 $369,900 3,700 sq. ft. 10,019 sq. ft. $100
2017-10-03 Single Family Traditional 2207 Peters Colony Road Carrollton, TX 75007 $267,750 2,353 sq. ft. 6,970 sq. ft. $114
2017-10-02 Single Family 2060 Peters Colony Road Carrollton, TX 75007 $214,900 1,716 sq. ft. 7,841 sq. ft. $125
2017-09-29 Single Family Traditional 2906 Cambridgeshire Drive Carrollton, TX 75007 $325,000 2,296 sq. ft. 8,712 sq. ft. $142
2017-09-29 Single Family 1509 Blue Mesa Road Carrollton, TX 75007 $349,900 2,968 sq. ft. 7,841 sq. ft. $118
2017-09-29 Single Family 2110 Avignon Drive Carrollton, TX 75007 $228,000 1,499 sq. ft. 3,920 sq. ft. $152
2017-09-27 Single Family Traditional 3808 Maywood Drive Carrollton, TX 75007 $425,000 3,994 sq. ft. 8,712 sq. ft. $106
2017-09-27 Single Family Traditional 1516 Prairie Drive Carrollton, TX 75007 $569,499 4,734 sq. ft. 9,148 sq. ft. $120
2017-09-27 Single Family Traditional 4624 Ridge Lane Carrollton, TX 75010 $585,071 4,080 sq. ft. 6,098 sq. ft. $143
2017-09-27 Single Family Traditional 2310 Versailles Drive Carrollton, TX 75007 $214,900 1,524 sq. ft. 5,227 sq. ft. $141
2017-09-27 Single Family Traditional 4336 Mesa Drive Carrollton, TX 75010 $259,900 1,944 sq. ft. 5,663 sq. ft. $134
2017-09-27 Single Family Traditional 1522 Sunnyslope Drive Carrollton, TX 75007 $298,500 2,460 sq. ft. 8,276 sq. ft. $121
2017-09-26 Single Family Traditional 3800 Grandview Drive Carrollton, TX 75007 $437,500 2,988 sq. ft. 8,712 sq. ft. $146
2017-09-26 Single Family Traditional 2842 Lotus Street Carrollton, TX 75007 $599,367 3,789 sq. ft. 6,098 sq. ft. $158
2017-09-26 Single Family Contemporary/Modern; French; Mediterranean 1411 Shannon Place Carrollton, TX 75006 $345,000 2,422 sq. ft. 10,454 sq. ft. $142
2017-09-25 Single Family Traditional 4200 Wild Plum Drive Carrollton, TX 75010 $289,000 2,580 sq. ft. 9,583 sq. ft. $112
2017-09-24 Single Family 1110 Holly Drive Carrollton, TX 75010 $242,000 1,391 sq. ft. 5,227 sq. ft. $174
2017-09-24 Single Family Contemporary/Modern 2549 Melissa Court Carrollton, TX 75006 $299,999 1,854 sq. ft. 3,485 sq. ft. $162
2017-09-23 Single Family Traditional 2827 Arcadia Lane Carrollton, TX 75007 $235,000 1,893 sq. ft. 8,712 sq. ft. $124
2017-09-23 Single Family Traditional 2805 Glenbrook Drive Carrollton, TX 75007 $234,900 1,805 sq. ft. 6,098 sq. ft. $130
2017-09-22 Single Family Traditional Carrollton, TX $558,940 3,309 sq. ft. $169
2017-09-22 Single Family Craftsman 2309 Cardinal Boulevard Carrollton, TX 75010 $649,900 4,695 sq. ft. 6,970 sq. ft. $138
2017-09-22 Single Family Traditional 1481 Parkwood Drive Carrollton, TX 75007 $339,900 2,756 sq. ft. 6,970 sq. ft. $123
2017-09-21 Single Family Traditional 2223 Arbor Crest Drive Carrollton, TX 75007 $730,000 3,463 sq. ft. 34,412 sq. ft. $211
2017-09-21 Single Family Traditional 2103 Hickory Drive Carrollton, TX 75006 $229,900 1,330 sq. ft. 7,405 sq. ft. $173
2017-09-21 Single Family 2212 Lockwood Drive Carrollton, TX 75007 $184,000 1,277 sq. ft. 8,276 sq. ft. $144
2017-09-21 Single Family Traditional 1615 Saint James Drive Carrollton, TX 75007 $249,900 1,942 sq. ft. 8,276 sq. ft. $129
2017-09-20 Single Family Traditional 2221 Marble Falls Drive Carrollton, TX 75007 $199,500 1,900 sq. ft. 7,405 sq. ft. $105
2017-09-18 Single Family 1327 Barclay Drive Carrollton, TX 75007 $315,000 2,412 sq. ft. 7,405 sq. ft. $131
2017-09-16 Single Family Contemporary/Modern; Traditional 3707 Cemetery Hill Road Carrollton, TX 75007 $289,900 2,424 sq. ft. 9,583 sq. ft. $120
2017-09-16 Single Family Traditional 4300 Mesa Drive Carrollton, TX 75010 $337,700 3,506 sq. ft. 6,970 sq. ft. $96
2017-09-15 Single Family Traditional 1437 Lincoln Drive Carrollton, TX 75006 $299,900 2,284 sq. ft. 11,326 sq. ft. $131
2017-09-15 Single Family Traditional 2026 Cedarwood Drive Carrollton, TX 75007 $225,000 1,565 sq. ft. 8,712 sq. ft. $144
2017-09-15 Single Family 4193 Creekhollow Drive Carrollton, TX 75010 $280,000 1,725 sq. ft. 4,792 sq. ft. $162
2017-09-15 Single Family 2701 Country Place Carrollton, TX 75006 $237,500 1,958 sq. ft. 5,663 sq. ft. $121
2017-09-14 Single Family Traditional 1336 Greenway Park Drive Carrollton, TX 75007 $469,500 4,061 sq. ft. 9,148 sq. ft. $116
2017-09-14 Single Family Traditional 1208 Sioux Street Carrollton, TX 75010 $475,000 3,644 sq. ft. 6,098 sq. ft. $130
2017-09-14 Single Family Traditional 2006 Wedgewood Lane Carrollton, TX 75006 $220,000 2,018 sq. ft. $109
2017-09-13 Single Family Contemporary/Modern; Traditional 2376 Mare Road Carrollton, TX 75010 $569,000 3,880 sq. ft. 6,970 sq. ft. $147
2017-09-13 Single Family Traditional 3824 Rockbrook Drive Carrollton, TX 75007 $425,000 4,007 sq. ft. 8,712 sq. ft. $106
2017-09-11 Single Family Traditional 1926 Lansdown Drive Carrollton, TX 75010 $310,000 2,133 sq. ft. 7,405 sq. ft. $145
2017-09-11 Single Family Traditional 2862 Lotus Street Carrollton, TX 75007 $557,437 3,262 sq. ft. 6,098 sq. ft. $171
2017-09-11 Single Family Ranch; Traditional 3317 Sam Rayburn Run Carrollton, TX 75007 $219,900 1,983 sq. ft. 6,970 sq. ft. $111
2017-09-09 Single Family Contemporary/Modern 2326 Heatherwoods Way Carrollton, TX 75007 $319,900 2,475 sq. ft. 8,276 sq. ft. $129
2017-09-08 Single Family Traditional 4609 Garden Dell Drive Carrollton, TX 75010 $685,000 5,174 sq. ft. 10,019 sq. ft. $132
2017-09-07 Single Family Craftsman 1117 Cemetery Hill Road Carrollton, TX 75007 $492,806 2,607 sq. ft. 5,227 sq. ft. $189
2017-09-06 Single Family 3702 Elizabeth Drive Carrollton, TX 75007 $325,000 2,108 sq. ft. 6,970 sq. ft. $154
2017-09-04 Single Family Traditional 3521 High Vista Drive Carrollton, TX 75007 $449,999 3,271 sq. ft. 12,197 sq. ft. $138
2017-09-02 Single Family Traditional 3549 High Vista Drive Carrollton, TX 75007 $379,999 3,200 sq. ft. 9,583 sq. ft. $119
2017-09-02 Single Family Traditional 2020 Arles Lane Carrollton, TX 75007 $239,900 1,481 sq. ft. 7,405 sq. ft. $162
2017-09-01 Single Family Traditional 3812 Leon Drive Carrollton, TX 75010 $475,000 4,090 sq. ft. 10,019 sq. ft. $116
2017-09-01 Single Family Traditional 4660 Man O War Road Carrollton, TX 75010 $695,000 4,396 sq. ft. 7,405 sq. ft. $158
2017-09-01 Single Family Traditional 2006 Shenandoah Drive Carrollton, TX 75007 $242,000 1,552 sq. ft. 9,148 sq. ft. $156
2017-08-31 Single Family Traditional 1413 Grimes Drive Carrollton, TX 75010 $354,000 2,650 sq. ft. 10,019 sq. ft. $134
2017-08-30 Single Family 3154 Abbey Road Carrollton, TX 75007 $210,900 1,302 sq. ft. 10,454 sq. ft. $162
2017-08-30 Single Family Traditional 1433 Flowers Drive Carrollton, TX 75007 $467,000 3,853 sq. ft. 7,841 sq. ft. $121
2017-08-30 Single Family Traditional 1927 Avignon Court Carrollton, TX 75007 $265,900 2,020 sq. ft. 7,405 sq. ft. $132
2017-08-30 Single Family 1213 Lone Wolf Trail Carrollton, TX 75007 $270,000 1,978 sq. ft. 3,920 sq. ft. $136
2017-08-30 Single Family Traditional 1121 Cemetery Hill Road Carrollton, TX 75007 $596,064 3,739 sq. ft. $159
2017-08-27 Single Family 1209 Broken Arrow Trail Carrollton, TX 75007 $277,000 2,017 sq. ft. 3,920 sq. ft. $137
2017-08-25 Single Family Traditional 1301 Miami Drive Carrollton, TX 75010 $539,000 3,969 sq. ft. 18,295 sq. ft. $136
2017-08-25 Single Family Traditional 1802 Castille Drive Carrollton, TX 75007 $279,900 2,111 sq. ft. 8,276 sq. ft. $133
2017-08-24 Single Family Traditional Carrollton, TX $208,000 1,712 sq. ft. 12,197 sq. ft. $122
2017-08-24 Single Family Traditional 1405 Summerhill Drive Carrollton, TX 75007 $349,900 2,700 sq. ft. 8,276 sq. ft. $130
2017-08-24 Single Family Traditional 2437 Mare Road Carrollton, TX 75010 $505,223 2,995 sq. ft. 6,098 sq. ft. $169
2017-08-24 Single Family Contemporary/Modern 2102 Greenview Drive Carrollton, TX 75010 $345,000 2,521 sq. ft. 7,405 sq. ft. $137
2017-08-23 Single Family 5005 Brush Hill Road Carrollton, TX 75010 $592,900 3,134 sq. ft. 6,098 sq. ft. $189
2017-08-18 Single Family Traditional 2301 Vaquero Lane Carrollton, TX 75010 $638,500 3,749 sq. ft. 8,712 sq. ft. $170
2017-08-16 Single Family Traditional 2603 Medina Drive Carrollton, TX 75007 $250,000 1,936 sq. ft. 10,454 sq. ft. $129
2017-08-13 Single Family 2930 Panorama Drive Carrollton, TX 75007 $269,900 1,724 sq. ft. 7,405 sq. ft. $157
2017-08-12 Single Family Traditional 1521 Van Winkle Drive Carrollton, TX 75007 $474,000 4,128 sq. ft. 7,405 sq. ft. $115
2017-08-11 Single Family Traditional 4009 Crestwood Drive Carrollton, TX 75007 $415,000 3,365 sq. ft. 8,712 sq. ft. $123
2017-08-11 Single Family 4132 Creekhollow Drive Carrollton, TX 75010 $250,000 1,635 sq. ft. 4,792 sq. ft. $153
2017-08-10 Single Family Traditional 2254 Valley Mill Carrollton, TX 75006 $269,900 2,379 sq. ft. 10,890 sq. ft. $113
2017-08-10 Single Family Traditional 3902 Cemetery Hill Road Carrollton, TX 75007 $474,900 3,844 sq. ft. 8,712 sq. ft. $124
2017-08-10 Single Family Traditional 2540 Belmeade Drive Carrollton, TX 75006 $249,000 2,024 sq. ft. 8,712 sq. ft. $123
2017-08-09 Single Family 3117 Irvine Drive Carrollton, TX 75007 $344,000 2,842 sq. ft. 5,227 sq. ft. $121
2017-08-07 Single Family 4316 Hopi Drive Carrollton, TX 75010 $394,990 3,532 sq. ft. 12,632 sq. ft. $112
2017-08-04 Single Family Traditional 1829 Gravley Drive Carrollton, TX 75006 $274,900 2,304 sq. ft. 9,148 sq. ft. $119
2017-08-04 Single Family Traditional 2305 Bronco Boulevard Carrollton, TX 75010 $639,900 4,432 sq. ft. 10,890 sq. ft. $144
2017-08-02 Single Family 4244 Arbor Lane Carrollton, TX 75010 $399,000 3,446 sq. ft. 6,970 sq. ft. $116
2017-08-02 Single Family Traditional 2228 Shakespeare Street Carrollton, TX 75010 $459,900 2,734 sq. ft. 6,970 sq. ft. $168
2017-07-31 Single Family Traditional 3904 Harrison Court Carrollton, TX 75010 $389,888 3,917 sq. ft. 6,970 sq. ft. $100
2017-07-29 Single Family 1012 Hunters Creek Drive Carrollton, TX 75007 $359,700 2,907 sq. ft. 7,405 sq. ft. $124
2017-07-29 Single Family Traditional 1800 Day Drive Carrollton, TX 75010 $387,900 3,511 sq. ft. 7,405 sq. ft. $110
2017-07-29 Single Family Traditional 1724 Lomar Carrollton, TX 75007 $509,950 4,298 sq. ft. 8,276 sq. ft. $119
2017-07-25 Single Family Traditional 2122 Menton Drive Carrollton, TX 75006 $374,900 3,390 sq. ft. 9,583 sq. ft. $111
2017-07-21 Single Family 2830 Elk Grove Road Carrollton, TX 75007 $239,000 1,570 sq. ft. 8,276 sq. ft. $152
2017-07-21 Single Family Traditional 1620 Valleycrest Lane Carrollton, TX 75006 $299,990 2,127 sq. ft. 10,019 sq. ft. $141
2017-07-20 Single Family Traditional 2117 Albert Road Carrollton, TX 75007 $269,900 1,808 sq. ft. 7,405 sq. ft. $149
2017-07-14 Single Family Contemporary/Modern; Traditional 2025 Statler Drive Carrollton, TX 75007 $260,000 1,784 sq. ft. 9,148 sq. ft. $146
2017-07-13 Single Family Traditional 4656 Seabiscuit Street Carrollton, TX 75010 $629,000 4,032 sq. ft. 7,405 sq. ft. $156
2017-07-08 Single Family Traditional 1633 Thomas Lane Carrollton, TX 75010 $565,000 4,988 sq. ft. 12,632 sq. ft. $113
2017-07-05 Single Family Traditional 2870 Lotus Street Carrollton, TX 75007 $648,150 4,118 sq. ft. $157
2017-07-05 Single Family Traditional 2334 Highlands Creek Road Carrollton, TX 75007 $325,000 2,633 sq. ft. 12,197 sq. ft. $123
2017-07-04 Single Family Contemporary/Modern 4244 Fairway Drive Carrollton, TX 75010 $405,000 3,225 sq. ft. 10,890 sq. ft. $126
2017-06-26 Single Family Traditional 2429 Stallion Street Carrollton, TX 75010 $533,475 3,297 sq. ft. 6,098 sq. ft. $162
2017-06-23 Single Family 4113 Kickapoo Trail Carrollton, TX 75010 $495,000 4,166 sq. ft. 10,019 sq. ft. $119
2017-06-16 Single Family Traditional 2565 Green Oak Drive Carrollton, TX 75010 $459,900 4,291 sq. ft. 10,019 sq. ft. $107
2017-06-13 Single Family Traditional 2408 Stallion Street Carrollton, TX 75010 $549,990 3,891 sq. ft. 5,663 sq. ft. $141
2017-06-02 Single Family Traditional 2838 Lotus Street Carrollton, TX 75007 $611,204 3,764 sq. ft. $162
2017-05-01 Single Family Traditional 2249 Hidalgo Drive Carrollton, TX 75010 $520,000 3,299 sq. ft. 7,841 sq. ft. $158
2017-05-01 Single Family Traditional 2952 Buttonwood Drive Carrollton, TX 75006 $335,000 3,083 sq. ft. 5,227 sq. ft. $109
2017-04-28 Single Family English; Traditional; Tudor 1529 Flowers Drive Carrollton, TX 75007 $500,000 4,588 sq. ft. 10,019 sq. ft. $109
2017-04-12 Single Family Tudor 4636 Ridge Lane Carrollton, TX 75010 $513,496 3,434 sq. ft. 6,098 sq. ft. $150
2017-03-15 Single Family Craftsman; Prairie; Traditional 1408 Rosemon Avenue Carrollton, TX 75006 $589,999 3,370 sq. ft. 20,473 sq. ft. $175
2017-03-01 Single Family Traditional 2604 Serenity Court Carrollton, TX 75010 $579,900 3,583 sq. ft. 10,019 sq. ft. $162
2017-01-21 Single Family Traditional 2004 Saint Pierre St Street Carrollton, TX 75006 $890,000 6,200 sq. ft. 10,019 sq. ft. $144
2016-12-28 Single Family Traditional 1001 Peacock Boulevard Carrollton, TX 75007 $592,919 3,895 sq. ft. $152
2016-10-07 Single Family Traditional 3104 Mayfair Drive Carrollton, TX 75007 $158,000 1,632 sq. ft. 6,970 sq. ft. $97